createdAt,value
2017-07-28T00:01:44.123Z,16.30
2017-07-28T00:04:13.824Z,16.40
2017-07-28T00:06:43.302Z,16.40
2017-07-28T00:09:13.753Z,16.30
2017-07-28T00:11:43.441Z,16.40
2017-07-28T00:14:13.903Z,16.30
2017-07-28T00:16:44.351Z,16.40
2017-07-28T00:19:14.023Z,16.30
2017-07-28T00:21:44.457Z,16.40
2017-07-28T00:24:14.907Z,16.40
2017-07-28T00:26:44.623Z,16.30
2017-07-28T00:29:13.984Z,16.40
2017-07-28T00:31:43.659Z,16.30
2017-07-28T00:34:13.357Z,16.40
2017-07-28T00:36:43.031Z,16.40
2017-07-28T00:39:13.473Z,16.40
2017-07-28T00:41:43.146Z,16.40
2017-07-28T00:44:14.074Z,16.40
2017-07-28T00:46:44.677Z,16.40
2017-07-28T00:49:14.355Z,16.40
2017-07-28T00:51:44.010Z,16.50
2017-07-28T00:54:14.462Z,16.50
2017-07-28T00:56:44.913Z,16.50
2017-07-28T00:59:14.597Z,16.40
2017-07-28T01:01:45.024Z,16.50
2017-07-28T01:04:14.457Z,16.50
2017-07-28T01:06:44.120Z,16.60
2017-07-28T01:09:13.596Z,16.60
2017-07-28T01:11:43.289Z,16.60
2017-07-28T01:14:12.494Z,16.50
2017-07-28T01:16:41.916Z,16.50
2017-07-28T01:19:11.600Z,16.50
2017-07-28T01:21:41.340Z,16.50
2017-07-28T01:24:11.148Z,16.50
2017-07-28T01:26:41.343Z,16.50
2017-07-28T01:29:11.018Z,16.50
2017-07-28T01:31:41.030Z,16.50
2017-07-28T01:34:11.510Z,16.50
2017-07-28T01:36:41.202Z,16.50
2017-07-28T01:39:10.928Z,16.50
2017-07-28T01:41:41.141Z,16.50
2017-07-28T01:44:10.804Z,16.50
2017-07-28T01:46:40.512Z,16.50
2017-07-28T01:49:10.180Z,16.40
2017-07-28T01:51:39.597Z,16.50
2017-07-28T01:54:09.299Z,16.40
2017-07-28T01:56:38.711Z,16.50
2017-07-28T01:59:08.404Z,16.50
2017-07-28T02:01:37.402Z,16.50
2017-07-28T02:04:06.550Z,16.50
2017-07-28T02:06:36.223Z,16.50
2017-07-28T02:09:05.017Z,16.40
2017-07-28T02:11:34.357Z,16.40
2017-07-28T02:14:04.535Z,16.50
2017-07-28T02:16:33.946Z,16.50
2017-07-28T02:19:03.633Z,16.50
2017-07-28T02:21:33.055Z,16.50
2017-07-28T02:24:02.737Z,16.50
2017-07-28T02:26:33.200Z,16.40
2017-07-28T02:29:02.889Z,16.40
2017-07-28T02:31:33.322Z,16.30
2017-07-28T02:34:03.027Z,16.30
2017-07-28T02:36:32.727Z,16.30
2017-07-28T02:39:03.182Z,16.20
2017-07-28T02:41:32.871Z,16.20
2017-07-28T02:44:02.558Z,16.20
2017-07-28T02:46:33.014Z,16.10
2017-07-28T02:49:02.722Z,16.10
2017-07-28T02:51:32.438Z,16.20
2017-07-28T02:54:02.131Z,16.20
2017-07-28T02:56:32.585Z,16.20
2017-07-28T02:59:02.279Z,16.10
2017-07-28T03:01:31.990Z,16.20
2017-07-28T03:04:01.665Z,16.10
2017-07-28T03:06:31.351Z,16.10
2017-07-28T03:09:01.039Z,16.10
2017-07-28T03:11:30.549Z,16.10
2017-07-28T03:14:00.254Z,16.10
2017-07-28T03:16:29.946Z,16.10
2017-07-28T03:18:59.638Z,16.10
2017-07-28T03:21:30.098Z,16.00
2017-07-28T03:23:59.811Z,16.00
2017-07-28T03:26:29.507Z,16.00
2017-07-28T03:28:59.199Z,16.00
2017-07-28T03:31:29.659Z,15.90
2017-07-28T03:33:59.327Z,15.90
2017-07-28T03:36:29.920Z,15.90
2017-07-28T03:38:59.589Z,15.80
2017-07-28T03:41:29.295Z,15.80
2017-07-28T03:43:58.997Z,15.80
2017-07-28T03:46:29.478Z,15.70
2017-07-28T03:48:59.193Z,15.70
2017-07-28T03:51:28.880Z,15.70
2017-07-28T03:53:58.577Z,15.70
2017-07-28T03:56:28.259Z,15.70
2017-07-28T03:58:58.711Z,15.80
2017-07-28T04:01:28.399Z,15.80
2017-07-28T04:03:58.856Z,15.80
2017-07-28T04:06:28.207Z,15.80
2017-07-28T04:08:57.911Z,15.90
2017-07-28T04:11:27.611Z,15.80
2017-07-28T04:13:57.348Z,15.90
2017-07-28T04:16:27.029Z,15.90
2017-07-28T04:18:56.414Z,16.00
2017-07-28T04:21:26.101Z,16.00
2017-07-28T04:23:56.550Z,16.10
2017-07-28T04:26:26.262Z,16.00
2017-07-28T04:28:55.989Z,16.10
2017-07-28T04:31:25.660Z,16.10
2017-07-28T04:33:55.371Z,16.10
2017-07-28T04:36:25.063Z,16.20
2017-07-28T04:38:55.496Z,16.30
2017-07-28T04:41:25.977Z,16.30
2017-07-28T04:43:55.653Z,16.30
2017-07-28T04:46:25.358Z,16.30
2017-07-28T04:48:54.854Z,16.30
2017-07-28T04:51:25.312Z,16.40
2017-07-28T04:53:54.715Z,16.40
2017-07-28T04:56:24.441Z,16.50
2017-07-28T04:58:54.113Z,16.50
2017-07-28T05:01:23.908Z,16.50
2017-07-28T05:03:53.618Z,16.50
2017-07-28T05:06:23.111Z,16.60
2017-07-28T05:08:52.768Z,16.60
2017-07-28T05:11:23.230Z,16.60
2017-07-28T05:13:53.209Z,16.60
2017-07-28T05:16:22.612Z,16.70
2017-07-28T05:18:53.098Z,16.80
2017-07-28T05:21:22.496Z,16.80
2017-07-28T05:23:51.918Z,16.90
2017-07-28T05:26:22.087Z,17.00
2017-07-28T05:28:52.383Z,17.00
2017-07-28T05:31:21.771Z,17.10
2017-07-28T05:33:51.966Z,17.40
2017-07-28T05:36:21.389Z,17.30
2017-07-28T05:38:52.146Z,17.50
2017-07-28T05:41:21.553Z,17.50
2017-07-28T05:43:50.976Z,17.70
2017-07-28T05:46:20.429Z,17.90
2017-07-28T05:48:50.617Z,18.30
2017-07-28T05:51:19.832Z,18.30
2017-07-28T05:53:49.251Z,18.40
2017-07-28T05:56:18.670Z,18.50
2017-07-28T05:58:49.524Z,18.90
2017-07-28T06:01:19.713Z,18.90
2017-07-28T06:03:49.151Z,18.90
2017-07-28T06:06:18.565Z,18.80
2017-07-28T06:08:47.965Z,18.90
2017-07-28T06:11:18.117Z,18.90
2017-07-28T06:13:47.515Z,18.90
2017-07-28T06:16:16.747Z,19.00
2017-07-28T06:18:46.163Z,19.10
2017-07-28T06:21:16.383Z,19.30
2017-07-28T06:23:45.610Z,19.30
2017-07-28T06:26:15.038Z,19.50
2017-07-28T06:28:44.444Z,19.50
2017-07-28T06:31:13.874Z,19.50
2017-07-28T06:33:43.284Z,19.50
2017-07-28T06:36:12.705Z,19.40
2017-07-28T06:38:42.866Z,19.70
2017-07-28T06:41:12.106Z,19.70
2017-07-28T06:43:41.497Z,20.00
2017-07-28T06:46:10.907Z,20.40
2017-07-28T06:48:40.321Z,20.40
2017-07-28T06:51:09.773Z,20.40
2017-07-28T06:53:39.191Z,20.10
2017-07-28T06:56:08.584Z,20.10
2017-07-28T06:58:37.985Z,20.30
2017-07-28T07:01:07.386Z,20.20
2017-07-28T07:03:36.865Z,20.30
2017-07-28T07:06:07.031Z,20.60
2017-07-28T07:08:36.471Z,20.60
2017-07-28T07:11:05.876Z,20.50
2017-07-28T07:13:35.285Z,20.60
2017-07-28T07:16:04.685Z,20.50
2017-07-28T07:18:34.101Z,20.60
2017-07-28T07:21:03.938Z,21.50
2017-07-28T07:23:33.398Z,21.50
2017-07-28T07:26:02.827Z,21.50
2017-07-28T07:28:34.640Z,21.30
2017-07-28T07:31:04.797Z,21.30
2017-07-28T07:33:34.206Z,21.30
2017-07-28T07:36:03.583Z,21.30
2017-07-28T07:38:32.968Z,21.10
2017-07-28T07:41:02.382Z,21.00
2017-07-28T07:43:31.778Z,21.00
2017-07-28T07:46:01.188Z,21.20
2017-07-28T07:48:31.336Z,21.50
2017-07-28T07:51:00.763Z,21.50
2017-07-28T07:53:30.956Z,21.90
2017-07-28T07:56:00.349Z,21.90
2017-07-28T07:58:29.741Z,21.60
2017-07-28T08:00:59.942Z,21.90
2017-07-28T08:03:29.354Z,21.90
2017-07-28T08:05:58.750Z,21.90
2017-07-28T08:08:28.149Z,22.00
2017-07-28T08:10:57.554Z,22.00
2017-07-28T08:13:26.939Z,21.80
2017-07-28T08:15:56.356Z,21.70
2017-07-28T08:18:25.739Z,21.70
2017-07-28T08:20:55.206Z,22.40
2017-07-28T08:23:24.401Z,22.70
2017-07-28T08:25:53.800Z,23.20
2017-07-28T08:28:23.210Z,23.60
2017-07-28T08:30:52.601Z,23.70
2017-07-28T08:33:22.022Z,23.40
2017-07-28T08:35:51.410Z,23.30
2017-07-28T08:38:20.811Z,23.10
2017-07-28T08:40:50.179Z,23.30
2017-07-28T08:43:19.601Z,23.40
2017-07-28T08:45:48.986Z,23.70
2017-07-28T08:48:18.407Z,23.80
2017-07-28T08:50:47.799Z,23.90
2017-07-28T08:53:17.206Z,23.80
2017-07-28T08:55:46.590Z,24.00
2017-07-28T08:58:15.996Z,24.00
2017-07-28T09:00:45.399Z,23.80
2017-07-28T09:03:14.818Z,23.60
2017-07-28T09:05:44.206Z,23.60
2017-07-28T09:08:13.607Z,23.90
2017-07-28T09:10:43.013Z,24.00
2017-07-28T09:13:12.410Z,24.30
2017-07-28T09:15:41.826Z,24.50
2017-07-28T09:18:11.209Z,24.10
2017-07-28T09:20:40.630Z,24.20
2017-07-28T09:23:10.793Z,24.60
2017-07-28T09:25:40.232Z,24.60
2017-07-28T09:28:09.643Z,25.10
2017-07-28T09:30:39.049Z,24.50
2017-07-28T09:33:08.432Z,24.60
2017-07-28T09:35:37.847Z,24.70
2017-07-28T09:38:07.242Z,24.80
2017-07-28T09:40:36.679Z,25.10
2017-07-28T09:43:06.820Z,24.50
2017-07-28T09:45:36.231Z,24.50
2017-07-28T09:48:05.619Z,24.40
2017-07-28T09:50:35.051Z,24.30
2017-07-28T09:53:05.209Z,24.10
2017-07-28T09:55:34.600Z,24.10
2017-07-28T09:58:04.786Z,24.30
2017-07-28T10:00:34.997Z,23.40
2017-07-28T10:03:04.410Z,23.40
2017-07-28T10:05:33.799Z,23.70
2017-07-28T10:08:03.966Z,24.60
2017-07-28T10:10:34.128Z,24.40
2017-07-28T10:13:03.541Z,24.40
2017-07-28T10:15:32.934Z,24.70
2017-07-28T10:18:02.344Z,24.20
2017-07-28T10:20:31.739Z,24.70
2017-07-28T10:23:01.151Z,25.20
2017-07-28T10:25:30.557Z,25.20
2017-07-28T10:27:59.972Z,24.60
2017-07-28T10:30:29.779Z,23.80
2017-07-28T10:32:59.220Z,23.80
2017-07-28T10:35:28.615Z,24.30
2017-07-28T10:37:57.997Z,24.90
2017-07-28T10:40:27.402Z,25.80
2017-07-28T10:42:56.802Z,26.40
2017-07-28T10:45:26.216Z,26.20
2017-07-28T10:47:55.631Z,26.10
2017-07-28T10:50:25.041Z,25.90
2017-07-28T10:52:54.411Z,25.60
2017-07-28T10:55:23.818Z,25.70
2017-07-28T10:57:53.215Z,26.00
2017-07-28T11:00:22.630Z,25.80
2017-07-28T11:02:52.787Z,24.60
2017-07-28T11:05:22.240Z,24.60
2017-07-28T11:07:51.658Z,24.30
2017-07-28T11:10:21.067Z,24.40
2017-07-28T11:12:51.231Z,24.10
2017-07-28T11:15:20.737Z,24.10
2017-07-28T11:17:50.130Z,24.00
2017-07-28T11:20:20.312Z,23.90
2017-07-28T11:22:49.693Z,23.90
2017-07-28T11:25:19.099Z,23.70
2017-07-28T11:27:48.523Z,23.40
2017-07-28T11:30:17.906Z,23.50
2017-07-28T11:32:47.326Z,23.80
2017-07-28T11:35:16.745Z,23.90
2017-07-28T11:37:47.612Z,23.50
2017-07-28T11:40:17.573Z,23.30
2017-07-28T11:42:46.990Z,23.20
2017-07-28T11:45:16.365Z,22.90
2017-07-28T11:47:45.797Z,23.00
2017-07-28T11:50:15.203Z,23.30
2017-07-28T11:52:44.600Z,23.60
2017-07-28T11:55:13.986Z,24.10
2017-07-28T11:57:44.162Z,24.00
2017-07-28T12:00:13.558Z,24.00
2017-07-28T12:02:42.622Z,24.20
2017-07-28T12:05:11.827Z,24.70
2017-07-28T12:07:41.051Z,24.60
2017-07-28T12:10:10.255Z,24.30
2017-07-28T12:12:40.281Z,25.50
2017-07-28T12:15:09.524Z,25.50
2017-07-28T12:17:39.675Z,26.60
2017-07-28T12:20:09.115Z,26.60
2017-07-28T12:22:38.498Z,26.90
2017-07-28T12:25:07.909Z,26.40
2017-07-28T12:27:37.119Z,25.70
2017-07-28T12:30:06.560Z,25.10
2017-07-28T12:32:35.952Z,24.90
2017-07-28T12:35:06.129Z,24.80
2017-07-28T12:37:35.537Z,24.70
2017-07-28T12:40:04.960Z,24.60
2017-07-28T12:42:34.356Z,24.90
2017-07-28T12:45:03.781Z,25.60
2017-07-28T12:47:33.181Z,26.80
2017-07-28T12:50:03.348Z,27.40
2017-07-28T12:52:32.759Z,26.90
2017-07-28T12:55:02.176Z,25.90
2017-07-28T12:57:31.597Z,25.00
2017-07-28T13:00:01.037Z,24.70
2017-07-28T13:02:31.017Z,24.30
2017-07-28T13:05:00.405Z,24.30
2017-07-28T13:07:30.592Z,23.60
2017-07-28T13:09:59.981Z,23.60
2017-07-28T13:12:29.397Z,23.50
2017-07-28T13:14:58.794Z,23.50
2017-07-28T13:17:28.220Z,23.70
2017-07-28T13:19:58.394Z,24.60
2017-07-28T13:22:27.921Z,24.50
2017-07-28T13:24:57.307Z,24.50
2017-07-28T13:27:26.733Z,24.20
2017-07-28T13:29:56.118Z,24.30
2017-07-28T13:32:25.533Z,24.80
2017-07-28T13:34:54.934Z,25.30
2017-07-28T13:37:24.335Z,26.00
2017-07-28T13:39:53.797Z,27.20
2017-07-28T13:42:23.219Z,28.40
2017-07-28T13:44:53.426Z,29.10
2017-07-28T13:47:22.821Z,29.10
2017-07-28T13:49:52.236Z,28.50
2017-07-28T13:52:21.732Z,26.50
2017-07-28T13:54:51.164Z,25.50
2017-07-28T13:57:20.583Z,25.00
2017-07-28T13:59:49.995Z,25.40
2017-07-28T14:02:19.397Z,26.50
2017-07-28T14:04:48.799Z,27.50
2017-07-28T14:07:18.177Z,28.20
2017-07-28T14:09:48.354Z,28.90
2017-07-28T14:12:17.770Z,28.80
2017-07-28T14:14:47.932Z,28.40
2017-07-28T14:17:17.339Z,28.40
2017-07-28T14:19:46.769Z,28.10
2017-07-28T14:22:16.925Z,27.00
2017-07-28T14:24:46.370Z,26.90
2017-07-28T14:27:15.787Z,27.20
2017-07-28T14:29:45.187Z,27.30
2017-07-28T14:32:14.620Z,26.90
2017-07-28T14:34:44.017Z,26.50
2017-07-28T14:37:14.199Z,25.40
2017-07-28T14:39:43.597Z,25.40
2017-07-28T14:42:12.667Z,25.20
2017-07-28T14:44:42.055Z,24.80
2017-07-28T14:47:11.462Z,24.50
2017-07-28T14:49:40.850Z,24.50
2017-07-28T14:52:10.271Z,24.30
2017-07-28T14:54:39.650Z,24.20
2017-07-28T14:57:09.061Z,24.50
2017-07-28T14:59:38.454Z,24.60
2017-07-28T15:02:07.880Z,24.60
2017-07-28T15:04:37.271Z,24.60
2017-07-28T15:07:07.474Z,24.40
2017-07-28T15:09:36.874Z,24.30
2017-07-28T15:12:06.265Z,24.10
2017-07-28T15:14:35.685Z,24.20
2017-07-28T15:17:05.089Z,24.40
2017-07-28T15:19:34.497Z,24.40
2017-07-28T15:22:03.887Z,24.40
2017-07-28T15:24:34.054Z,24.50
2017-07-28T15:27:03.469Z,24.50
2017-07-28T15:29:32.884Z,24.40
2017-07-28T15:32:02.279Z,24.30
2017-07-28T15:34:31.681Z,24.40
2017-07-28T15:37:01.073Z,24.20
2017-07-28T15:39:30.909Z,24.20
2017-07-28T15:42:00.299Z,24.10
2017-07-28T15:44:29.705Z,24.10
2017-07-28T15:46:59.872Z,24.10
2017-07-28T15:49:29.299Z,24.10
2017-07-28T15:51:58.696Z,24.00
2017-07-28T15:54:28.098Z,23.90
2017-07-28T15:56:57.475Z,23.90
2017-07-28T15:59:26.870Z,23.80
2017-07-28T16:01:56.288Z,23.80
2017-07-28T16:04:25.669Z,23.80
2017-07-28T16:06:55.089Z,23.90
2017-07-28T16:09:25.348Z,24.00
2017-07-28T16:11:54.774Z,24.00
2017-07-28T16:14:24.153Z,23.90
2017-07-28T16:16:53.551Z,23.80
2017-07-28T16:19:22.946Z,23.90
2017-07-28T16:21:52.364Z,23.90
2017-07-28T16:24:21.770Z,23.90
2017-07-28T16:26:51.178Z,23.80
2017-07-28T16:29:20.571Z,23.90
2017-07-28T16:31:50.002Z,23.90
2017-07-28T16:34:19.190Z,24.00
2017-07-28T16:36:48.615Z,24.00
2017-07-28T16:39:17.666Z,24.00
2017-07-28T16:41:47.082Z,24.00
2017-07-28T16:44:16.498Z,23.90
2017-07-28T16:46:45.904Z,23.80
2017-07-28T16:49:15.297Z,23.70
2017-07-28T16:51:44.694Z,23.60
2017-07-28T16:54:14.111Z,23.50
2017-07-28T16:56:43.515Z,23.60
2017-07-28T16:59:12.960Z,23.50
2017-07-28T17:01:43.109Z,23.50
2017-07-28T17:04:12.542Z,23.50
2017-07-28T17:06:41.931Z,23.40
2017-07-28T17:09:11.342Z,23.40
2017-07-28T17:11:40.719Z,23.30
2017-07-28T17:14:09.937Z,23.30
2017-07-28T17:16:39.326Z,23.10
2017-07-28T17:19:08.742Z,22.90
2017-07-28T17:21:38.147Z,22.80
2017-07-28T17:24:07.549Z,22.70
2017-07-28T17:26:36.951Z,22.50
2017-07-28T17:29:06.354Z,22.40
2017-07-28T17:31:35.777Z,22.30
2017-07-28T17:34:05.742Z,22.10
2017-07-28T17:36:34.977Z,22.00
2017-07-28T17:39:03.687Z,22.00
2017-07-28T17:41:33.868Z,22.00
2017-07-28T17:44:03.265Z,22.00
2017-07-28T17:46:32.687Z,22.00
2017-07-28T17:49:02.113Z,22.10
2017-07-28T17:51:32.285Z,22.10
2017-07-28T17:54:01.694Z,22.10
2017-07-28T17:56:31.097Z,22.00
2017-07-28T17:59:00.490Z,21.90
2017-07-28T18:01:29.907Z,21.90
2017-07-28T18:03:59.327Z,21.80
2017-07-28T18:06:28.732Z,21.80
2017-07-28T18:08:59.650Z,21.70
2017-07-28T18:11:29.076Z,21.70
2017-07-28T18:13:58.500Z,21.70
2017-07-28T18:16:28.687Z,21.50
2017-07-28T18:18:57.902Z,21.50
2017-07-28T18:21:27.427Z,21.40
2017-07-28T18:23:56.901Z,21.40
2017-07-28T18:26:26.297Z,21.40
2017-07-28T18:28:55.710Z,21.40
2017-07-28T18:31:25.181Z,21.30
2017-07-28T18:33:54.586Z,21.30
2017-07-28T18:36:23.989Z,21.20
2017-07-28T18:38:53.427Z,21.20
2017-07-28T18:41:22.931Z,21.20
2017-07-28T18:43:53.125Z,21.10
2017-07-28T18:46:23.289Z,21.10
2017-07-28T18:48:52.708Z,21.00
2017-07-28T18:51:22.134Z,21.00
2017-07-28T18:53:51.556Z,21.00
2017-07-28T18:56:21.024Z,20.90
2017-07-28T18:58:50.449Z,20.80
2017-07-28T19:01:19.852Z,20.80
2017-07-28T19:03:50.054Z,20.80
2017-07-28T19:06:19.505Z,20.80
2017-07-28T19:08:50.235Z,20.80
2017-07-28T19:11:19.738Z,20.80
2017-07-28T19:13:49.713Z,20.60
2017-07-28T19:16:19.131Z,20.50
2017-07-28T19:18:48.520Z,20.40
2017-07-28T19:21:17.952Z,20.30
2017-07-28T19:23:48.169Z,20.10
2017-07-28T19:26:17.588Z,20.00
2017-07-28T19:28:47.774Z,19.90
2017-07-28T19:31:17.199Z,19.90
2017-07-28T19:33:47.376Z,19.90
2017-07-28T19:36:16.788Z,19.90
2017-07-28T19:38:46.231Z,19.80
2017-07-28T19:41:15.738Z,19.80
2017-07-28T19:43:44.929Z,19.70
2017-07-28T19:46:15.100Z,19.70
2017-07-28T19:48:44.501Z,19.70
2017-07-28T19:51:13.924Z,19.70
2017-07-28T19:53:43.537Z,19.60
2017-07-28T19:56:12.936Z,19.50
2017-07-28T19:58:43.281Z,19.40
2017-07-28T20:01:12.711Z,19.40
2017-07-28T20:03:42.906Z,19.30
2017-07-28T20:06:12.312Z,19.30
2017-07-28T20:08:42.434Z,19.30
2017-07-28T20:11:11.855Z,19.20
2017-07-28T20:13:42.072Z,19.10
2017-07-28T20:16:11.473Z,19.10
2017-07-28T20:18:41.479Z,19.10
2017-07-28T20:21:10.870Z,19.10
2017-07-28T20:23:40.388Z,19.20
2017-07-28T20:26:10.690Z,19.10
2017-07-28T20:28:40.204Z,19.00
2017-07-28T20:31:09.627Z,19.00
2017-07-28T20:33:39.048Z,19.00
2017-07-28T20:36:09.557Z,19.00
2017-07-28T20:38:38.985Z,18.90
2017-07-28T20:41:08.057Z,18.90
2017-07-28T20:43:37.509Z,18.80
2017-07-28T20:46:06.915Z,18.80
2017-07-28T20:48:36.317Z,18.70
2017-07-28T20:51:06.139Z,18.60
2017-07-28T20:53:35.594Z,18.50
2017-07-28T20:56:05.748Z,18.40
2017-07-28T20:58:35.263Z,18.30
2017-07-28T21:01:04.810Z,18.20
2017-07-28T21:03:34.321Z,18.20
2017-07-28T21:06:03.733Z,18.10
2017-07-28T21:08:33.892Z,18.00
2017-07-28T21:11:03.118Z,18.00
2017-07-28T21:13:43.862Z,18.00
2017-07-28T21:16:13.086Z,17.80
2017-07-28T21:18:42.478Z,17.70
2017-07-28T21:21:11.882Z,17.70
2017-07-28T21:23:41.293Z,17.60
2017-07-28T21:26:10.698Z,17.60
2017-07-28T21:28:40.435Z,17.50
2017-07-28T21:31:09.822Z,17.40
2017-07-28T21:33:39.234Z,17.30
2017-07-28T21:36:08.662Z,17.30
2017-07-28T21:38:38.829Z,17.30
2017-07-28T21:41:08.337Z,17.30
2017-07-28T21:43:38.117Z,17.20
2017-07-28T21:46:07.532Z,17.20
2017-07-28T21:48:37.383Z,17.20
2017-07-28T21:51:06.791Z,17.20
2017-07-28T21:53:36.469Z,17.20
2017-07-28T21:56:05.894Z,17.10
2017-07-28T21:58:35.307Z,17.10
2017-07-28T22:01:04.576Z,17.10
2017-07-28T22:03:34.000Z,17.00
2017-07-28T22:06:03.432Z,17.00
2017-07-28T22:08:33.638Z,17.00
2017-07-28T22:11:02.860Z,17.00
2017-07-28T22:13:32.374Z,17.00
2017-07-28T22:16:02.558Z,17.10
2017-07-28T22:18:32.257Z,17.10
2017-07-28T22:21:01.949Z,17.00
2017-07-28T22:23:31.347Z,17.00
2017-07-28T22:26:01.803Z,17.00
2017-07-28T22:28:31.291Z,17.00
2017-07-28T22:31:01.828Z,16.90
2017-07-28T22:33:31.367Z,16.90
2017-07-28T22:36:00.848Z,16.90
2017-07-28T22:38:30.055Z,16.90
2017-07-28T22:40:59.461Z,16.90
2017-07-28T22:43:29.185Z,16.90
2017-07-28T22:45:58.585Z,16.80
2017-07-28T22:48:28.545Z,16.70
2017-07-28T22:50:59.016Z,16.70
2017-07-28T22:53:28.495Z,16.70
2017-07-28T22:55:58.742Z,16.60
2017-07-28T22:58:28.161Z,16.60
2017-07-28T23:00:57.817Z,16.60
2017-07-28T23:03:28.271Z,16.70
2017-07-28T23:05:57.957Z,16.70
2017-07-28T23:08:27.651Z,16.70
2017-07-28T23:10:57.377Z,16.70
2017-07-28T23:13:27.838Z,16.70
2017-07-28T23:15:57.516Z,16.70
2017-07-28T23:18:26.989Z,16.60
2017-07-28T23:20:56.644Z,16.60
2017-07-28T23:23:26.339Z,16.60
2017-07-28T23:25:56.788Z,16.60
2017-07-28T23:28:26.479Z,16.60
2017-07-28T23:30:56.148Z,16.70
2017-07-28T23:33:25.848Z,16.80
2017-07-28T23:35:55.504Z,16.80
2017-07-28T23:38:24.919Z,16.80
2017-07-28T23:40:54.311Z,16.80
2017-07-28T23:43:24.767Z,16.80
2017-07-28T23:45:54.173Z,16.70
2017-07-28T23:48:23.851Z,16.70
2017-07-28T23:50:53.557Z,16.70
2017-07-28T23:53:23.237Z,16.70
2017-07-28T23:55:52.918Z,16.70
2017-07-28T23:58:22.600Z,16.60
